Latest Coastal Weather Observations for Bellambi

IDN60701

Issued at 6:51 pm EST Monday 30 May 2016 (issued every 10 minutes, with the page automatically refreshed every 10 minutes)

About coastal observations | Map of coastal stations | Coastal observations for NSW | Marine services | Other Formats
Station Details ID: 068228 Name: BELLAMBI AWS Lat: -34.37 Lon: 150.93 Height: 10.0 m
Data from the previous 72 hours. | See also: Recent months at Bellambi
Date/Time
EST
Temp

°C
Wind Pressure Rain
since 9am
mm
Weather Cloud Vis
km
Sea
Height
m
Swell
Dir
 
Speed
knots
Gust
knots
hPa Trend Height
m
Period
s
Dir
30/06:30pm 12.5 WSW 6 7 - - 0.0 - - - - - - -
30/06:00pm 13.0 WSW 6 7 - - 0.0 - - - - - - -
30/05:30pm 13.6 WSW 6 8 - - 0.0 - - - - - - -
30/05:00pm 14.7 SW 8 11 - - 0.0 - - - - - - -
30/04:30pm 15.8 SW 7 10 - - 0.0 - - - - - - -
30/04:00pm 16.6 S 10 12 - - 0.0 - - - - - - -
30/03:30pm 16.7 S 10 13 - - 0.0 - - - - - - -
30/03:00pm 16.7 SSE 9 13 - - 0.0 - - - - - - -
30/02:30pm 16.9 SSE 9 11 - - 0.0 - - - - - - -
30/02:00pm 17.0 SSE 9 12 - - 0.0 - - - - - - -
30/01:30pm 17.1 S 8 10 - - 0.0 - - - - - - -
30/01:00pm 17.0 S 7 10 - - 0.0 - - - - - - -
30/12:30pm 16.8 S 8 10 - - 0.0 - - - - - - -
30/12:00pm 16.5 S 9 12 - - 0.0 - - - - - - -
30/11:30am 16.2 S 8 11 - - 0.0 - - - - - - -
30/11:00am 16.1 SSW 8 11 - - 0.0 - - - - - - -
30/10:30am 16.1 SSW 9 11 - - 0.0 - - - - - - -
30/10:00am 15.6 SW 9 12 - - 0.0 - - - - - - -
30/09:30am 14.9 SW 9 12 - - 0.0 - - - - - - -
30/09:00am 14.3 SW 9 12 - - 0.0 - - - - - - -
30/08:30am 13.2 WSW 5 7 - - 0.0 - - - - - - -
30/08:00am 11.8 W 7 9 - - 0.0 - - - - - - -
30/07:30am 9.8 W 6 8 - - 0.0 - - - - - - -
30/07:00am 8.5 WNW 5 6 - - 0.0 - - - - - - -
30/06:30am 8.0 WNW 5 6 - - 0.0 - - - - - - -
30/06:00am 8.6 NW 5 6 - - 0.0 - - - - - - -
30/05:30am 8.8 W 3 5 - - 0.0 - - - - - - -
30/05:00am 8.9 WSW 3 5 - - 0.0 - - - - - - -
30/04:30am 8.8 WNW 2 4 - - 0.0 - - - - - - -
30/04:00am 9.0 WNW 5 5 - - 0.0 - - - - - - -
30/03:30am 9.1 NW 5 6 - - 0.0 - - - - - - -
30/03:00am 9.9 NW 4 5 - - 0.0 - - - - - - -
30/02:30am 9.8 W 3 6 - - 0.0 - - - - - - -
30/02:00am 10.0 W 6 7 - - 0.0 - - - - - - -
30/01:30am 9.9 W 5 7 - - 0.0 - - - - - - -
30/01:00am 10.2 W 6 9 - - 0.0 - - - - - - -
30/12:30am 10.1 W 6 8 - - 0.0 - - - - - - -
30/12:00am 10.6 W 7 12 - - 0.0 - - - - - - -
 
Date/Time
EST
Temp

°C
Wind Pressure Rain
since 9am
mm
Weather Cloud Vis
km
Sea
Height
m
Swell
Dir
 
Speed
knots
Gust
knots
hPa Trend Height
m
Period
s
Dir
29/11:30pm 10.7 W 7 11 - - 0.0 - - - - - - -
29/11:00pm 10.9 W 8 12 - - 0.0 - - - - - - -
29/10:30pm 11.0 W 7 10 - - 0.0 - - - - - - -
29/10:00pm 11.1 WNW 5 8 - - 0.0 - - - - - - -
29/09:30pm 11.9 W 8 12 - - 0.0 - - - - - - -
29/09:00pm 12.0 WSW 11 15 - - 0.0 - - - - - - -
29/08:30pm 12.2 WSW 11 16 - - 0.0 - - - - - - -
29/08:00pm 12.6 W 11 17 - - 0.0 - - - - - - -
29/07:30pm 12.8 WSW 9 11 - - 0.0 - - - - - - -
29/07:00pm 13.4 W 10 16 - - 0.0 - - - - - - -
29/06:30pm 13.6 SW 5 11 - - 0.0 - - - - - - -
29/06:00pm 14.1 WSW 9 12 - - 0.0 - - - - - - -
29/05:30pm 13.8 W 7 8 - - 0.0 - - - - - - -
29/05:00pm 14.8 W 5 7 - - 0.0 - - - - - - -
29/04:30pm 16.3 WSW 5 7 - - 0.0 - - - - - - -
29/04:00pm 17.3 SW 9 11 - - 0.0 - - - - - - -
29/03:30pm 18.0 SW 7 12 - - 0.0 - - - - - - -
29/03:00pm 18.3 WSW 6 10 - - 0.0 - - - - - - -
29/02:30pm 18.4 SSW 6 10 - - 0.0 - - - - - - -
29/02:00pm 18.1 SSW 4 8 - - 0.0 - - - - - - -
29/01:30pm 17.8 SSW 7 10 - - 0.0 - - - - - - -
29/01:00pm 17.9 W 8 12 - - 0.0 - - - - - - -
29/12:30pm 17.9 W 7 11 - - 0.0 - - - - - - -
29/12:00pm 17.2 WNW 8 11 - - 0.0 - - - - - - -
29/11:30am 16.6 W 8 11 - - 0.0 - - - - - - -
29/11:00am 16.0 W 9 13 - - 0.0 - - - - - - -
29/10:30am 15.5 W 9 12 - - 0.0 - - - - - - -
29/10:00am 14.7 W 11 14 - - 0.0 - - - - - - -
29/09:30am 14.1 W 11 17 - - 0.0 - - - - - - -
29/09:00am 13.1 WSW 12 18 - - 0.2 - - - - - - -
29/08:30am 12.3 W 12 18 - - 0.2 - - - - - - -
29/08:00am 11.6 W 11 16 - - 0.2 - - - - - - -
29/07:30am 11.1 WSW 12 18 - - 0.2 - - - - - - -
29/07:00am 10.7 W 9 14 - - 0.2 - - - - - - -
29/06:30am 10.9 W 10 15 - - 0.2 - - - - - - -
29/06:00am 11.0 WSW 12 17 - - 0.2 - - - - - - -
29/05:30am 11.0 W 10 17 - - 0.2 - - - - - - -
29/05:00am 11.0 WSW 9 16 - - 0.2 - - - - - - -
29/04:30am 10.9 W 8 13 - - 0.2 - - - - - - -
29/04:00am 11.2 WSW 10 17 - - 0.2 - - - - - - -
29/03:30am 11.2 SW 11 15 - - 0.2 - - - - - - -
29/03:00am 11.3 WSW 11 17 - - 0.2 - - - - - - -
29/02:30am 11.6 W 12 20 - - 0.2 - - - - - - -
29/02:00am 11.8 W 13 19 - - 0.2 - - - - - - -
29/01:30am 11.7 W 11 16 - - 0.2 - - - - - - -
29/01:00am 11.7 W 11 18 - - 0.2 - - - - - - -
29/12:30am 12.0 W 13 23 - - 0.2 - - - - - - -
29/12:00am 12.1 W 10 16 - - 0.2 - - - - - - -
 
Date/Time
EST
Temp

°C
Wind Pressure Rain
since 9am
mm
Weather Cloud Vis
km
Sea
Height
m
Swell
Dir
 
Speed
knots
Gust
knots
hPa Trend Height
m
Period
s
Dir
28/11:30pm 12.0 W 13 18 - - 0.2 - - - - - - -
28/11:00pm 12.1 WSW 12 20 - - 0.2 - - - - - - -
28/10:30pm 12.4 WSW 14 22 - - 0.2 - - - - - - -
28/10:00pm 12.7 W 15 21 - - 0.2 - - - - - - -
28/09:30pm 12.7 W 13 20 - - 0.2 - - - - - - -
28/09:00pm 12.9 W 15 25 - - 0.2 - - - - - - -
28/08:58pm 12.9 W 15 25 - - 0.2 - - - - - - -
28/08:30pm 12.9 W 15 23 - - 0.2 - - - - - - -
28/08:05pm 13.2 W 15 25 - - 0.2 - Partly cloudy - - - - -
28/08:00pm 13.2 W 15 22 - - 0.2 - Partly cloudy - - - - -
28/07:30pm 13.3 W 14 21 - - 0.2 - Partly cloudy - - - - -
28/07:00pm 13.1 WSW 11 16 - - 0.2 - Partly cloudy - - - - -
28/06:30pm 12.9 WSW 8 12 - - 0.2 - Partly cloudy - - - - -
28/06:00pm 12.9 WSW 9 15 - - 0.2 - - - - - - -
28/05:30pm 12.9 WSW 10 15 - - 0.2 - - - - - - -
28/05:00pm 13.3 WSW 9 14 - - 0.2 - - - - - - -
28/04:30pm 13.9 WSW 9 12 - - 0.2 - Partly cloudy - - - - -
28/04:00pm 14.1 SW 9 13 - - 0.2 - Partly cloudy - - - - -
28/03:30pm 14.9 WSW 11 16 - - 0.2 - - - - - - -
28/03:00pm 15.2 WSW 11 19 - - 0.2 - Cloudy - - - - -
28/02:30pm 14.3 SW 8 11 - - 0.2 - Partly cloudy - - - - -
28/02:00pm 12.8 SW 10 16 - - 0.2 - Cloudy - - - - -
28/01:30pm 12.8 SW 9 13 - - 0.2 - Cloudy - - - - -
28/01:00pm 12.5 SW 11 17 - - 0.2 - Cloudy - - - - -
28/12:30pm 13.0 WSW 9 15 - - 0.0 - Partly cloudy - - - - -
28/12:00pm 13.1 WSW 8 13 - - 0.0 - Mostly cloudy - - - - -
28/11:30am 13.4 W 7 13 - - 0.0 - Cloudy - - - - -
28/11:00am 13.4 WNW 9 13 - - 0.0 - Cloudy - - - - -
28/10:30am 13.4 WNW 8 11 - - 0.0 - Cloudy - - - - -
28/10:00am 13.4 W 6 9 - - 0.0 - Partly cloudy - - - - -
28/09:30am 13.2 WNW 5 7 - - 0.0 - Partly cloudy - - - - -
28/09:00am 12.7 NNW 5 7 - - 0.0 - Cloudy - - - - -
28/08:30am 12.1 WNW 5 7 - - 0.0 - Cloudy - - - - -
28/08:00am 11.6 W 6 8 - - 0.0 - Partly cloudy - - - - -
28/07:30am 11.8 W 7 8 - - 0.0 - Partly cloudy - - - - -
28/07:00am 11.5 NW 5 8 - - 0.0 - - - - - - -
28/06:30am 11.5 W 5 7 - - 0.0 - - - - - - -
28/06:00am 12.0 NW 5 8 - - 0.0 - Cloudy - - - - -
28/05:30am 12.1 WSW 4 8 - - 0.0 - - - - - - -
28/05:00am 12.9 SSW 10 14 - - 0.0 - - - - - - -
28/04:30am 12.5 SW 4 9 - - 0.0 - - - - - - -
28/04:00am 12.2 SSW 7 12 - - 0.0 - - - - - - -
28/03:30am 12.0 SW 8 15 - - 0.0 - - - - - - -
28/03:00am 12.3 SW 9 13 - - 0.0 - - - - - - -
28/02:30am 12.7 SW 10 16 - - 0.0 - - - - - - -
28/02:00am 12.9 WSW 10 23 - - 0.0 - - - - - - -
28/01:30am 12.6 SW 9 16 - - 0.0 - - - - - - -
28/01:00am 12.6 SW 11 18 - - 0.0 - - - - - - -
28/12:31am 12.7 W 15 25 - - 0.0 - - - - - - -
28/12:30am 12.5 W 15 24 - - 0.0 - - - - - - -
28/12:00am 12.7 W 17 32 - - 0.0 - - - - - - -
 
Date/Time
EST
Temp

°C
Wind Pressure Rain
since 9am
mm
Weather Cloud Vis
km
Sea
Height
m
Swell
Dir
 
Speed
knots
Gust
knots
hPa Trend Height
m
Period
s
Dir
27/11:30pm 12.9 W 18 32 - - 0.0 - - - - - - -
27/11:00pm 12.9 W 18 31 - - 0.0 - - - - - - -
27/10:30pm 13.1 W 18 29 - - 0.0 - - - - - - -
27/10:00pm 13.1 W 17 29 - - 0.0 - - - - - - -
27/09:30pm 13.3 W 19 30 - - 0.0 - - - - - - -
27/09:00pm 13.3 W 16 27 - - 0.0 - - - - - - -
27/08:31pm 13.5 W 15 26 - - 0.0 - - - - - - -
27/08:30pm 13.5 W 15 23 - - 0.0 - - - - - - -
27/08:00pm 13.7 W 17 31 - - 0.0 - - - - - - -
27/07:30pm 13.9 W 20 31 - - 0.0 - - - - - - -
27/07:00pm 14.0 WSW 17 31 - - 0.0 - - - - - - -

Other Formats:

Comma delimited format used in spreadsheet applications
http://www.bom.gov.au/fwo/IDN60701/IDN60701.94749.axf

JavaScript Object Notation format (JSON) in row-major order
http://www.bom.gov.au/fwo/IDN60701/IDN60701.94749.json